sensor_id;sensor_type;location;lat;lon;timestamp;temperature;humidity
22426;DHT22;11380;50.822;15.790;2023-04-24T00:00:21;14.20;99.90
22426;DHT22;11380;50.822;15.790;2023-04-24T00:05:29;13.80;1.00
22426;DHT22;11380;50.822;15.790;2023-04-24T00:10:35;14.60;99.90
22426;DHT22;11380;50.822;15.790;2023-04-24T00:15:41;14.70;82.00
22426;DHT22;11380;50.822;15.790;2023-04-24T00:20:48;14.30;99.90
22426;DHT22;11380;50.822;15.790;2023-04-24T00:25:54;14.10;99.90
22426;DHT22;11380;50.822;15.790;2023-04-24T00:31:00;14.10;99.90
22426;DHT22;11380;50.822;15.790;2023-04-24T00:36:06;13.90;99.90
22426;DHT22;11380;50.822;15.790;2023-04-24T00:41:12;13.70;1.00
22426;DHT22;11380;50.822;15.790;2023-04-24T00:46:19;13.80;1.00
22426;DHT22;11380;50.822;15.790;2023-04-24T00:51:26;13.60;1.00
22426;DHT22;11380;50.822;15.790;2023-04-24T00:56:32;13.30;99.90
22426;DHT22;11380;50.822;15.790;2023-04-24T01:01:38;12.90;1.00
22426;DHT22;11380;50.822;15.790;2023-04-24T01:06:48;12.70;99.90
22426;DHT22;11380;50.822;15.790;2023-04-24T01:11:57;12.60;1.00
22426;DHT22;11380;50.822;15.790;2023-04-24T01:17:04;12.80;1.00
22426;DHT22;11380;50.822;15.790;2023-04-24T01:22:15;12.70;1.00
22426;DHT22;11380;50.822;15.790;2023-04-24T01:27:20;12.40;10.80
22426;DHT22;11380;50.822;15.790;2023-04-24T01:32:28;12.40;89.00
22426;DHT22;11380;50.822;15.790;2023-04-24T01:37:35;12.50;14.40
22426;DHT22;11380;50.822;15.790;2023-04-24T01:42:42;12.60;24.10
22426;DHT22;11380;50.822;15.790;2023-04-24T01:47:49;12.40;29.80
22426;DHT22;11380;50.822;15.790;2023-04-24T01:52:55;12.40;99.90
22426;DHT22;11380;50.822;15.790;2023-04-24T01:58:01;12.20;99.90
22426;DHT22;11380;50.822;15.790;2023-04-24T02:03:07;12.20;99.90
22426;DHT22;11380;50.822;15.790;2023-04-24T02:08:13;12.20;99.90
22426;DHT22;11380;50.822;15.790;2023-04-24T02:13:21;12.30;99.90
22426;DHT22;11380;50.822;15.790;2023-04-24T02:18:28;12.40;99.90
22426;DHT22;11380;50.822;15.790;2023-04-24T02:23:34;12.50;99.90
22426;DHT22;11380;50.822;15.790;2023-04-24T02:28:40;12.50;99.90
22426;DHT22;11380;50.822;15.790;2023-04-24T02:33:47;12.40;99.90
22426;DHT22;11380;50.822;15.790;2023-04-24T02:38:53;12.40;99.90
22426;DHT22;11380;50.822;15.790;2023-04-24T02:43:59;12.40;99.90
22426;DHT22;11380;50.822;15.790;2023-04-24T02:49:05;12.40;99.90
22426;DHT22;11380;50.822;15.790;2023-04-24T02:54:12;12.40;99.90
22426;DHT22;11380;50.822;15.790;2023-04-24T02:59:19;12.30;99.90
22426;DHT22;11380;50.822;15.790;2023-04-24T03:04:25;12.40;99.90
22426;DHT22;11380;50.822;15.790;2023-04-24T03:09:31;12.20;99.90
22426;DHT22;11380;50.822;15.790;2023-04-24T03:14:38;12.10;99.90
22426;DHT22;11380;50.822;15.790;2023-04-24T03:19:44;12.10;99.90
22426;DHT22;11380;50.822;15.790;2023-04-24T03:24:51;12.20;99.90
22426;DHT22;11380;50.822;15.790;2023-04-24T03:29:58;12.10;99.90
22426;DHT22;11380;50.822;15.790;2023-04-24T03:35:05;12.10;99.90
22426;DHT22;11380;50.822;15.790;2023-04-24T03:40:14;11.90;99.90
22426;DHT22;11380;50.822;15.790;2023-04-24T03:45:20;12.00;99.90
22426;DHT22;11380;50.822;15.790;2023-04-24T03:50:26;12.10;99.90
22426;DHT22;11380;50.822;15.790;2023-04-24T03:55:33;11.80;99.90
22426;DHT22;11380;50.822;15.790;2023-04-24T04:00:39;12.00;99.90
22426;DHT22;11380;50.822;15.790;2023-04-24T04:05:45;12.20;99.90
22426;DHT22;11380;50.822;15.790;2023-04-24T04:10:51;12.30;99.90
22426;DHT22;11380;50.822;15.790;2023-04-24T04:15:57;12.30;99.90
22426;DHT22;11380;50.822;15.790;2023-04-24T04:21:04;12.30;99.90
22426;DHT22;11380;50.822;15.790;2023-04-24T04:26:11;12.30;99.90
22426;DHT22;11380;50.822;15.790;2023-04-24T04:31:17;11.90;99.90
22426;DHT22;11380;50.822;15.790;2023-04-24T04:36:23;12.10;99.90
22426;DHT22;11380;50.822;15.790;2023-04-24T04:41:30;11.60;99.90
22426;DHT22;11380;50.822;15.790;2023-04-24T04:46:35;11.70;99.90
22426;DHT22;11380;50.822;15.790;2023-04-24T04:51:43;11.30;1.00
22426;DHT22;11380;50.822;15.790;2023-04-24T04:56:50;11.30;1.00
22426;DHT22;11380;50.822;15.790;2023-04-24T05:01:56;11.20;1.00
22426;DHT22;11380;50.822;15.790;2023-04-24T05:07:02;11.50;1.00
22426;DHT22;11380;50.822;15.790;2023-04-24T05:12:09;11.80;99.90
22426;DHT22;11380;50.822;15.790;2023-04-24T05:17:15;11.80;99.90
22426;DHT22;11380;50.822;15.790;2023-04-24T05:22:21;11.90;99.90
22426;DHT22;11380;50.822;15.790;2023-04-24T05:27:29;12.00;99.90
22426;DHT22;11380;50.822;15.790;2023-04-24T05:32:35;11.60;1.00
22426;DHT22;11380;50.822;15.790;2023-04-24T05:37:41;11.30;1.00
22426;DHT22;11380;50.822;15.790;2023-04-24T05:42:47;11.60;1.00
22426;DHT22;11380;50.822;15.790;2023-04-24T05:47:54;11.90;1.00
22426;DHT22;11380;50.822;15.790;2023-04-24T05:53:00;12.20;1.00
22426;DHT22;11380;50.822;15.790;2023-04-24T05:58:06;13.20;99.90
22426;DHT22;11380;50.822;15.790;2023-04-24T06:03:13;13.70;1.00
22426;DHT22;11380;50.822;15.790;2023-04-24T06:08:21;13.70;1.00
22426;DHT22;11380;50.822;15.790;2023-04-24T06:13:27;13.90;1.00
22426;DHT22;11380;50.822;15.790;2023-04-24T06:18:33;14.00;1.00
22426;DHT22;11380;50.822;15.790;2023-04-24T06:23:38;13.90;1.00
22426;DHT22;11380;50.822;15.790;2023-04-24T06:28:45;13.90;1.00
22426;DHT22;11380;50.822;15.790;2023-04-24T06:33:51;14.10;1.00
22426;DHT22;11380;50.822;15.790;2023-04-24T06:38:58;14.30;1.00
22426;DHT22;11380;50.822;15.790;2023-04-24T06:44:03;14.40;99.90
22426;DHT22;11380;50.822;15.790;2023-04-24T06:49:09;14.50;99.90
22426;DHT22;11380;50.822;15.790;2023-04-24T06:54:15;15.00;99.90
22426;DHT22;11380;50.822;15.790;2023-04-24T06:59:22;15.00;99.90
22426;DHT22;11380;50.822;15.790;2023-04-24T07:04:28;15.20;1.00
22426;DHT22;11380;50.822;15.790;2023-04-24T07:09:35;15.10;1.00
22426;DHT22;11380;50.822;15.790;2023-04-24T07:14:42;15.30;1.00
22426;DHT22;11380;50.822;15.790;2023-04-24T07:19:48;15.50;1.00
22426;DHT22;11380;50.822;15.790;2023-04-24T07:24:54;16.00;1.00
22426;DHT22;11380;50.822;15.790;2023-04-24T07:30:00;16.30;1.00
22426;DHT22;11380;50.822;15.790;2023-04-24T07:35:06;15.90;99.90
22426;DHT22;11380;50.822;15.790;2023-04-24T07:40:13;15.60;99.90
22426;DHT22;11380;50.822;15.790;2023-04-24T07:45:19;15.40;99.90
22426;DHT22;11380;50.822;15.790;2023-04-24T07:50:25;15.90;99.90
22426;DHT22;11380;50.822;15.790;2023-04-24T07:55:30;16.00;99.90
22426;DHT22;11380;50.822;15.790;2023-04-24T08:00:36;15.90;1.00
22426;DHT22;11380;50.822;15.790;2023-04-24T08:05:43;15.70;1.00
22426;DHT22;11380;50.822;15.790;2023-04-24T08:10:49;15.40;1.00
22426;DHT22;11380;50.822;15.790;2023-04-24T08:15:56;15.40;1.00
22426;DHT22;11380;50.822;15.790;2023-04-24T08:21:02;15.10;1.00
22426;DHT22;11380;50.822;15.790;2023-04-24T08:26:10;15.20;1.00
22426;DHT22;11380;50.822;15.790;2023-04-24T08:31:16;15.10;1.00
22426;DHT22;11380;50.822;15.790;2023-04-24T08:36:25;14.90;99.90
22426;DHT22;11380;50.822;15.790;2023-04-24T08:41:33;14.80;99.90
22426;DHT22;11380;50.822;15.790;2023-04-24T08:46:39;14.80;1.00
22426;DHT22;11380;50.822;15.790;2023-04-24T08:51:45;14.70;99.90
22426;DHT22;11380;50.822;15.790;2023-04-24T08:56:51;14.80;99.90
22426;DHT22;11380;50.822;15.790;2023-04-24T09:01:59;14.80;99.90
22426;DHT22;11380;50.822;15.790;2023-04-24T09:07:06;14.70;99.90
22426;DHT22;11380;50.822;15.790;2023-04-24T09:12:12;14.60;99.90
22426;DHT22;11380;50.822;15.790;2023-04-24T09:17:19;14.40;99.90
22426;DHT22;11380;50.822;15.790;2023-04-24T09:22:30;14.20;87.10
22426;DHT22;11380;50.822;15.790;2023-04-24T09:27:36;14.00;99.90
22426;DHT22;11380;50.822;15.790;2023-04-24T09:32:43;14.00;99.90
22426;DHT22;11380;50.822;15.790;2023-04-24T09:37:49;13.60;29.50
22426;DHT22;11380;50.822;15.790;2023-04-24T09:42:56;13.60;99.90
22426;DHT22;11380;50.822;15.790;2023-04-24T09:48:03;13.40;99.90
22426;DHT22;11380;50.822;15.790;2023-04-24T09:53:10;13.30;99.90
22426;DHT22;11380;50.822;15.790;2023-04-24T09:58:16;13.30;99.90
22426;DHT22;11380;50.822;15.790;2023-04-24T10:03:25;13.40;1.00
22426;DHT22;11380;50.822;15.790;2023-04-24T10:08:36;13.30;1.00
22426;DHT22;11380;50.822;15.790;2023-04-24T10:13:42;13.00;1.00
22426;DHT22;11380;50.822;15.790;2023-04-24T10:18:49;12.90;99.90
22426;DHT22;11380;50.822;15.790;2023-04-24T10:23:55;13.00;99.90
22426;DHT22;11380;50.822;15.790;2023-04-24T10:29:01;12.70;99.90
22426;DHT22;11380;50.822;15.790;2023-04-24T10:34:08;12.70;99.90
22426;DHT22;11380;50.822;15.790;2023-04-24T10:39:14;12.40;99.90
22426;DHT22;11380;50.822;15.790;2023-04-24T10:44:21;12.40;99.90
22426;DHT22;11380;50.822;15.790;2023-04-24T10:49:29;12.30;99.90
22426;DHT22;11380;50.822;15.790;2023-04-24T10:54:42;12.40;99.90
22426;DHT22;11380;50.822;15.790;2023-04-24T10:59:51;12.50;99.90
22426;DHT22;11380;50.822;15.790;2023-04-24T11:05:02;12.60;99.90
22426;DHT22;11380;50.822;15.790;2023-04-24T11:10:12;12.70;99.90
22426;DHT22;11380;50.822;15.790;2023-04-24T11:15:19;12.90;1.00
22426;DHT22;11380;50.822;15.790;2023-04-24T11:20:25;12.90;1.00
22426;DHT22;11380;50.822;15.790;2023-04-24T11:25:31;12.80;1.00
22426;DHT22;11380;50.822;15.790;2023-04-24T11:30:38;12.80;1.00
22426;DHT22;11380;50.822;15.790;2023-04-24T11:35:45;12.70;1.00
22426;DHT22;11380;50.822;15.790;2023-04-24T11:40:52;12.60;1.00
22426;DHT22;11380;50.822;15.790;2023-04-24T11:45:59;12.70;1.00
22426;DHT22;11380;50.822;15.790;2023-04-24T11:51:05;12.60;1.00
22426;DHT22;11380;50.822;15.790;2023-04-24T11:56:12;12.10;99.90
22426;DHT22;11380;50.822;15.790;2023-04-24T12:01:23;12.00;1.00
22426;DHT22;11380;50.822;15.790;2023-04-24T12:06:29;11.70;1.00
22426;DHT22;11380;50.822;15.790;2023-04-24T12:11:34;11.80;1.00
22426;DHT22;11380;50.822;15.790;2023-04-24T12:16:41;11.90;1.00
22426;DHT22;11380;50.822;15.790;2023-04-24T12:22:03;12.00;1.00
22426;DHT22;11380;50.822;15.790;2023-04-24T12:27:18;12.10;1.00
22426;DHT22;11380;50.822;15.790;2023-04-24T12:32:20;12.10;1.00
22426;DHT22;11380;50.822;15.790;2023-04-24T12:37:26;12.30;1.00
22426;DHT22;11380;50.822;15.790;2023-04-24T12:42:35;12.30;1.00
22426;DHT22;11380;50.822;15.790;2023-04-24T12:47:43;12.30;1.00
22426;DHT22;11380;50.822;15.790;2023-04-24T12:52:49;12.30;1.00
22426;DHT22;11380;50.822;15.790;2023-04-24T12:57:55;12.30;1.00
22426;DHT22;11380;50.822;15.790;2023-04-24T13:03:01;12.40;1.00
22426;DHT22;11380;50.822;15.790;2023-04-24T13:08:07;12.60;1.00
22426;DHT22;11380;50.822;15.790;2023-04-24T13:13:13;12.70;99.90
22426;DHT22;11380;50.822;15.790;2023-04-24T13:18:20;12.60;1.00
22426;DHT22;11380;50.822;15.790;2023-04-24T13:23:26;12.70;99.90
22426;DHT22;11380;50.822;15.790;2023-04-24T13:28:33;12.60;99.90
22426;DHT22;11380;50.822;15.790;2023-04-24T13:33:39;12.40;1.00
22426;DHT22;11380;50.822;15.790;2023-04-24T13:38:47;12.50;1.00
22426;DHT22;11380;50.822;15.790;2023-04-24T13:43:54;12.50;99.90
22426;DHT22;11380;50.822;15.790;2023-04-24T13:49:01;12.70;99.90
22426;DHT22;11380;50.822;15.790;2023-04-24T13:54:09;12.70;1.00
22426;DHT22;11380;50.822;15.790;2023-04-24T13:59:15;12.50;1.00
22426;DHT22;11380;50.822;15.790;2023-04-24T14:04:21;12.30;1.00
22426;DHT22;11380;50.822;15.790;2023-04-24T14:09:28;12.40;1.00
22426;DHT22;11380;50.822;15.790;2023-04-24T14:14:34;12.50;1.00
22426;DHT22;11380;50.822;15.790;2023-04-24T14:19:42;12.60;1.00
22426;DHT22;11380;50.822;15.790;2023-04-24T14:24:49;12.70;1.00
22426;DHT22;11380;50.822;15.790;2023-04-24T14:29:55;12.80;1.00
22426;DHT22;11380;50.822;15.790;2023-04-24T14:35:01;12.90;1.00
22426;DHT22;11380;50.822;15.790;2023-04-24T14:40:07;12.80;1.00
22426;DHT22;11380;50.822;15.790;2023-04-24T14:45:14;12.70;1.00
22426;DHT22;11380;50.822;15.790;2023-04-24T14:50:20;12.80;1.00
22426;DHT22;11380;50.822;15.790;2023-04-24T14:55:28;12.70;1.00
22426;DHT22;11380;50.822;15.790;2023-04-24T15:00:35;13.00;1.00
22426;DHT22;11380;50.822;15.790;2023-04-24T15:05:42;13.40;1.00
22426;DHT22;11380;50.822;15.790;2023-04-24T15:10:48;13.30;99.90
22426;DHT22;11380;50.822;15.790;2023-04-24T15:15:54;13.30;99.90
22426;DHT22;11380;50.822;15.790;2023-04-24T15:21:00;13.30;99.90
22426;DHT22;11380;50.822;15.790;2023-04-24T15:26:06;13.40;99.90
22426;DHT22;11380;50.822;15.790;2023-04-24T15:31:13;13.50;88.00
22426;DHT22;11380;50.822;15.790;2023-04-24T15:36:19;13.40;32.80
22426;DHT22;11380;50.822;15.790;2023-04-24T15:41:26;13.30;99.90
22426;DHT22;11380;50.822;15.790;2023-04-24T15:46:33;13.20;15.90
22426;DHT22;11380;50.822;15.790;2023-04-24T15:51:39;13.30;67.80
22426;DHT22;11380;50.822;15.790;2023-04-24T15:56:46;13.30;1.00
22426;DHT22;11380;50.822;15.790;2023-04-24T16:01:53;13.30;23.40
22426;DHT22;11380;50.822;15.790;2023-04-24T16:07:00;13.10;1.00
22426;DHT22;11380;50.822;15.790;2023-04-24T16:12:07;12.10;94.50
22426;DHT22;11380;50.822;15.790;2023-04-24T16:17:13;11.30;1.00
22426;DHT22;11380;50.822;15.790;2023-04-24T16:22:20;10.80;1.00
22426;DHT22;11380;50.822;15.790;2023-04-24T16:27:27;10.70;1.00
22426;DHT22;11380;50.822;15.790;2023-04-24T16:32:32;10.50;1.00
22426;DHT22;11380;50.822;15.790;2023-04-24T16:37:38;10.40;5.30
22426;DHT22;11380;50.822;15.790;2023-04-24T16:42:45;10.30;46.70
22426;DHT22;11380;50.822;15.790;2023-04-24T16:47:51;10.50;1.00
22426;DHT22;11380;50.822;15.790;2023-04-24T16:52:59;10.70;1.00
22426;DHT22;11380;50.822;15.790;2023-04-24T16:58:04;10.90;1.00
22426;DHT22;11380;50.822;15.790;2023-04-24T17:03:10;10.70;1.00
22426;DHT22;11380;50.822;15.790;2023-04-24T17:08:17;10.70;1.00
22426;DHT22;11380;50.822;15.790;2023-04-24T17:13:23;10.50;74.70
22426;DHT22;11380;50.822;15.790;2023-04-24T17:18:29;10.20;99.90
22426;DHT22;11380;50.822;15.790;2023-04-24T17:23:35;10.20;99.90
22426;DHT22;11380;50.822;15.790;2023-04-24T17:28:41;10.10;99.90
22426;DHT22;11380;50.822;15.790;2023-04-24T17:33:48;10.20;99.90
22426;DHT22;11380;50.822;15.790;2023-04-24T17:38:54;10.10;99.90
22426;DHT22;11380;50.822;15.790;2023-04-24T17:44:06;10.10;58.50
22426;DHT22;11380;50.822;15.790;2023-04-24T17:49:13;10.20;1.00
22426;DHT22;11380;50.822;15.790;2023-04-24T17:54:19;10.20;1.00
22426;DHT22;11380;50.822;15.790;2023-04-24T17:59:26;10.20;1.00
22426;DHT22;11380;50.822;15.790;2023-04-24T18:04:32;10.20;1.00
22426;DHT22;11380;50.822;15.790;2023-04-24T18:09:38;10.40;1.00
22426;DHT22;11380;50.822;15.790;2023-04-24T18:14:44;10.20;1.00
22426;DHT22;11380;50.822;15.790;2023-04-24T18:19:50;10.20;1.00
22426;DHT22;11380;50.822;15.790;2023-04-24T18:24:56;10.30;1.00
22426;DHT22;11380;50.822;15.790;2023-04-24T18:30:04;10.10;1.00
22426;DHT22;11380;50.822;15.790;2023-04-24T18:35:10;10.00;1.00
22426;DHT22;11380;50.822;15.790;2023-04-24T18:40:16;10.20;1.00
22426;DHT22;11380;50.822;15.790;2023-04-24T18:45:22;10.20;1.00
22426;DHT22;11380;50.822;15.790;2023-04-24T18:50:28;10.00;1.00
22426;DHT22;11380;50.822;15.790;2023-04-24T18:55:35;9.90;1.00
22426;DHT22;11380;50.822;15.790;2023-04-24T19:00:41;9.90;1.00
22426;DHT22;11380;50.822;15.790;2023-04-24T19:05:47;9.80;1.00
22426;DHT22;11380;50.822;15.790;2023-04-24T19:10:53;9.70;1.00
22426;DHT22;11380;50.822;15.790;2023-04-24T19:15:59;9.80;1.00
22426;DHT22;11380;50.822;15.790;2023-04-24T19:21:05;10.00;1.00
22426;DHT22;11380;50.822;15.790;2023-04-24T19:26:12;10.00;1.00
22426;DHT22;11380;50.822;15.790;2023-04-24T19:31:18;9.90;1.00
22426;DHT22;11380;50.822;15.790;2023-04-24T19:36:24;9.90;1.00
22426;DHT22;11380;50.822;15.790;2023-04-24T19:41:31;9.90;1.00
22426;DHT22;11380;50.822;15.790;2023-04-24T19:46:39;9.80;1.00
22426;DHT22;11380;50.822;15.790;2023-04-24T19:51:45;9.70;1.00
22426;DHT22;11380;50.822;15.790;2023-04-24T19:56:51;9.70;99.90
22426;DHT22;11380;50.822;15.790;2023-04-24T20:01:58;9.70;99.90
22426;DHT22;11380;50.822;15.790;2023-04-24T20:07:05;9.80;99.90
22426;DHT22;11380;50.822;15.790;2023-04-24T20:12:11;9.80;99.90
22426;DHT22;11380;50.822;15.790;2023-04-24T20:17:18;9.80;99.90
22426;DHT22;11380;50.822;15.790;2023-04-24T20:22:27;9.70;99.90
22426;DHT22;11380;50.822;15.790;2023-04-24T20:27:34;9.70;99.90
22426;DHT22;11380;50.822;15.790;2023-04-24T20:32:41;9.70;99.90
22426;DHT22;11380;50.822;15.790;2023-04-24T20:37:47;9.70;99.90
22426;DHT22;11380;50.822;15.790;2023-04-24T20:42:53;9.70;99.90
22426;DHT22;11380;50.822;15.790;2023-04-24T20:48:00;9.70;99.90
22426;DHT22;11380;50.822;15.790;2023-04-24T20:53:06;9.70;99.90
22426;DHT22;11380;50.822;15.790;2023-04-24T20:58:14;9.70;99.90
22426;DHT22;11380;50.822;15.790;2023-04-24T21:03:21;9.70;99.90
22426;DHT22;11380;50.822;15.790;2023-04-24T21:08:28;9.70;99.90
22426;DHT22;11380;50.822;15.790;2023-04-24T21:13:34;9.70;99.90
22426;DHT22;11380;50.822;15.790;2023-04-24T21:18:40;9.60;99.90
22426;DHT22;11380;50.822;15.790;2023-04-24T21:23:46;9.60;99.90
22426;DHT22;11380;50.822;15.790;2023-04-24T21:28:53;9.50;99.90
22426;DHT22;11380;50.822;15.790;2023-04-24T21:33:59;9.40;99.90
22426;DHT22;11380;50.822;15.790;2023-04-24T21:39:05;9.30;99.90
22426;DHT22;11380;50.822;15.790;2023-04-24T21:44:11;9.30;99.90
22426;DHT22;11380;50.822;15.790;2023-04-24T21:49:18;9.30;99.90
22426;DHT22;11380;50.822;15.790;2023-04-24T21:54:25;9.20;99.90
22426;DHT22;11380;50.822;15.790;2023-04-24T21:59:32;9.30;99.90
22426;DHT22;11380;50.822;15.790;2023-04-24T22:04:39;9.20;99.90
22426;DHT22;11380;50.822;15.790;2023-04-24T22:09:45;9.20;99.90
22426;DHT22;11380;50.822;15.790;2023-04-24T22:14:52;9.10;99.90
22426;DHT22;11380;50.822;15.790;2023-04-24T22:19:59;9.00;99.90
22426;DHT22;11380;50.822;15.790;2023-04-24T22:25:05;9.00;99.90
22426;DHT22;11380;50.822;15.790;2023-04-24T22:30:12;9.00;99.90
22426;DHT22;11380;50.822;15.790;2023-04-24T22:35:17;9.00;99.90
22426;DHT22;11380;50.822;15.790;2023-04-24T22:40:24;9.10;99.90
22426;DHT22;11380;50.822;15.790;2023-04-24T22:45:30;9.00;99.90
22426;DHT22;11380;50.822;15.790;2023-04-24T22:50:36;9.00;99.90
22426;DHT22;11380;50.822;15.790;2023-04-24T22:55:42;9.00;99.90
22426;DHT22;11380;50.822;15.790;2023-04-24T23:00:48;8.90;99.90
22426;DHT22;11380;50.822;15.790;2023-04-24T23:05:55;8.90;99.90
22426;DHT22;11380;50.822;15.790;2023-04-24T23:11:01;8.90;99.90
22426;DHT22;11380;50.822;15.790;2023-04-24T23:16:08;8.90;99.90
22426;DHT22;11380;50.822;15.790;2023-04-24T23:21:14;8.80;99.90
22426;DHT22;11380;50.822;15.790;2023-04-24T23:26:20;8.60;99.90
22426;DHT22;11380;50.822;15.790;2023-04-24T23:31:26;8.70;99.90
22426;DHT22;11380;50.822;15.790;2023-04-24T23:36:33;8.60;99.90
22426;DHT22;11380;50.822;15.790;2023-04-24T23:41:39;8.50;99.90
22426;DHT22;11380;50.822;15.790;2023-04-24T23:46:47;8.50;99.90
22426;DHT22;11380;50.822;15.790;2023-04-24T23:51:53;8.40;99.90
22426;DHT22;11380;50.822;15.790;2023-04-24T23:56:59;8.30;99.90
